Time;durP1;ratioP1;P1;durP2;ratioP2;P2;SDS_P1;SDS_P2;PMS_P1;PMS_P2;Temp;Humidity;BMP_temperature;BMP_pressure;BME280_temperature;BME280_humidity;BME280_pressure;Samples;Min_cycle;Max_cycle;Signal;HPM_P1;HPM_P2
2022/04/29 00:00:38;;;;;;;3.33;1.95;;;6.80;98.10;;;;;;5055288;28;20143;-82
2022/04/29 00:03:07;;;;;;;4.03;2.55;;;6.70;98.30;;;;;;5055079;28;20036;-82
2022/04/29 00:05:34;;;;;;;4.35;2.47;;;6.70;98.40;;;;;;5054891;28;20029;-82
2022/04/29 00:08:01;;;;;;;3.55;2.15;;;6.60;98.50;;;;;;5054969;28;20025;-82
2022/04/29 00:10:26;;;;;;;4.00;2.40;;;6.60;98.60;;;;;;5054888;28;20071;-82
2022/04/29 00:12:53;;;;;;;4.07;2.40;;;6.60;98.80;;;;;;5056145;28;20438;-82
2022/04/29 00:15:20;;;;;;;4.30;2.72;;;6.50;99.00;;;;;;5054962;28;20374;-82
2022/04/29 00:17:46;;;;;;;3.25;2.17;;;6.50;99.00;;;;;;5056117;28;20025;-82
2022/04/29 00:20:13;;;;;;;4.20;2.45;;;6.40;99.20;;;;;;5054812;28;20031;-82
2022/04/29 00:22:39;;;;;;;3.70;2.45;;;6.30;99.50;;;;;;5056098;28;20055;-82
2022/04/29 00:25:06;;;;;;;3.95;2.50;;;6.30;99.60;;;;;;5055940;28;20047;-81
2022/04/29 00:27:32;;;;;;;3.42;2.20;;;6.20;99.70;;;;;;5054674;28;20054;-82
2022/04/29 00:29:57;;;;;;;5.32;2.58;;;6.10;99.80;;;;;;5054559;28;20394;-82
2022/04/29 00:32:23;;;;;;;4.47;2.75;;;6.10;99.90;;;;;;5055486;28;20067;-82
2022/04/29 00:34:49;;;;;;;6.32;3.20;;;6.00;99.90;;;;;;5056094;28;20366;-82
2022/04/29 00:37:16;;;;;;;8.77;4.32;;;6.00;99.90;;;;;;5056044;28;20131;-82
2022/04/29 00:39:42;;;;;;;9.32;4.82;;;6.00;99.90;;;;;;5054455;28;20041;-82
2022/04/29 00:42:21;;;;;;;9.35;4.63;;;5.90;99.90;;;;;;5054418;28;20401;-82
2022/04/29 00:44:47;;;;;;;8.07;4.82;;;5.90;99.90;;;;;;5054298;28;20033;-82
2022/04/29 00:47:15;;;;;;;8.68;5.63;;;5.90;99.90;;;;;;5055631;28;20107;-82
2022/04/29 00:49:43;;;;;;;8.13;4.30;;;5.90;99.90;;;;;;5054304;28;20497;-82
2022/04/29 00:52:19;;;;;;;8.65;4.30;;;5.80;99.90;;;;;;5055712;28;20155;-82
2022/04/29 00:54:55;;;;;;;4.75;3.03;;;5.80;99.90;;;;;;5054177;28;20111;-82
2022/04/29 00:57:28;;;;;;;4.10;2.50;;;5.70;99.90;;;;;;5055467;28;20481;-82
2022/04/29 01:00:21;;;;;;;4.22;2.67;;;5.60;99.90;;;;;;5055644;28;20412;-82
2022/04/29 01:02:50;;;;;;;4.75;2.63;;;5.60;99.90;;;;;;5052932;28;20393;-82
2022/04/29 01:05:19;;;;;;;6.45;3.80;;;5.50;99.90;;;;;;5055193;28;20021;-81
2022/04/29 01:07:46;;;;;;;6.07;3.63;;;5.50;99.90;;;;;;5055245;28;20021;-82
2022/04/29 01:10:13;;;;;;;5.13;2.83;;;5.40;99.90;;;;;;5055160;28;20028;-82
2022/04/29 01:12:44;;;;;;;4.82;2.97;;;5.30;99.90;;;;;;5053777;28;20025;-82
2022/04/29 01:15:15;;;;;;;4.50;3.30;;;5.30;99.90;;;;;;5055249;28;20032;-81
2022/04/29 01:17:43;;;;;;;5.47;2.70;;;5.30;99.90;;;;;;5055143;28;20036;-81
2022/04/29 01:20:12;;;;;;;4.32;2.70;;;5.30;99.90;;;;;;5054876;28;20021;-81
2022/04/29 01:22:38;;;;;;;4.35;2.58;;;5.20;99.90;;;;;;5055170;28;20036;-81
2022/04/29 01:25:04;;;;;;;3.55;2.45;;;5.20;99.90;;;;;;5055308;28;20029;-81
2022/04/29 01:27:30;;;;;;;4.32;2.70;;;5.20;99.90;;;;;;5054975;28;20028;-82
2022/04/29 01:30:11;;;;;;;5.82;2.47;;;5.20;99.90;;;;;;5055478;28;20021;-82
2022/04/29 01:32:39;;;;;;;4.63;2.72;;;5.20;99.90;;;;;;5053523;28;20025;-82
2022/04/29 01:35:06;;;;;;;6.05;3.08;;;5.10;99.90;;;;;;5053228;28;20033;-82
2022/04/29 01:37:33;;;;;;;3.17;2.28;;;5.10;99.90;;;;;;5054573;28;20100;-82
2022/04/29 01:39:59;;;;;;;6.72;2.80;;;5.10;99.90;;;;;;5053078;28;20033;-81
2022/04/29 01:42:25;;;;;;;4.43;2.67;;;5.00;99.90;;;;;;5054826;28;20033;-81
2022/04/29 01:44:51;;;;;;;4.13;2.60;;;4.90;99.90;;;;;;5052298;28;20032;-81
2022/04/29 01:47:17;;;;;;;6.10;3.88;;;4.80;99.90;;;;;;5053117;28;20025;-81
2022/04/29 01:49:43;;;;;;;14.18;7.53;;;4.80;99.90;;;;;;5053261;28;20025;-81
2022/04/29 01:52:09;;;;;;;22.98;10.48;;;4.80;99.90;;;;;;5053714;28;20139;-82
2022/04/29 01:54:35;;;;;;;17.40;10.02;;;4.80;99.90;;;;;;5054510;28;20025;-82
2022/04/29 01:57:01;;;;;;;13.82;8.07;;;4.80;99.90;;;;;;5052866;28;20025;-82
2022/04/29 01:59:29;;;;;;;8.30;5.22;;;4.80;99.90;;;;;;5054703;28;20031;-82
2022/04/29 02:01:55;;;;;;;5.57;3.42;;;4.80;99.90;;;;;;5052816;28;20116;-82
2022/04/29 02:04:21;;;;;;;4.07;2.58;;;4.70;99.90;;;;;;5053960;28;20104;-82
2022/04/29 02:06:47;;;;;;;4.15;2.60;;;4.70;99.90;;;;;;5054031;28;20021;-81
2022/04/29 02:09:12;;;;;;;7.03;2.60;;;4.60;99.90;;;;;;5052717;28;20143;-82
2022/04/29 02:11:38;;;;;;;5.25;2.72;;;4.60;99.90;;;;;;5052712;28;20044;-82
2022/04/29 02:14:04;;;;;;;5.00;2.67;;;4.60;99.90;;;;;;5053933;28;20028;-82
2022/04/29 02:16:30;;;;;;;3.85;2.78;;;4.60;99.90;;;;;;5053845;28;20021;-81
2022/04/29 02:18:55;;;;;;;5.03;3.10;;;4.50;99.90;;;;;;5052594;28;20025;-82
2022/04/29 02:21:21;;;;;;;8.07;4.20;;;4.50;99.90;;;;;;5052472;28;20044;-82
2022/04/29 02:23:47;;;;;;;6.32;4.38;;;4.50;99.90;;;;;;5053618;28;20032;-82
2022/04/29 02:26:13;;;;;;;7.22;4.78;;;4.50;99.90;;;;;;5052384;28;20021;-81
2022/04/29 02:28:38;;;;;;;4.95;3.28;;;4.40;99.90;;;;;;5053099;28;20017;-82
2022/04/29 02:31:04;;;;;;;4.88;3.00;;;4.40;99.90;;;;;;5054257;28;20086;-82
2022/04/29 02:33:32;;;;;;;4.22;2.60;;;4.40;99.90;;;;;;5052289;28;20021;-82
2022/04/29 02:35:59;;;;;;;4.53;3.10;;;4.40;99.90;;;;;;5052353;28;20123;-82
2022/04/29 02:38:24;;;;;;;4.70;2.80;;;4.30;99.90;;;;;;5052375;28;20554;-82
2022/04/29 02:40:50;;;;;;;4.32;2.78;;;4.30;99.90;;;;;;5052133;28;20045;-82
2022/04/29 02:43:17;;;;;;;3.25;2.40;;;4.30;99.90;;;;;;5053830;28;20021;-82
2022/04/29 02:45:44;;;;;;;4.35;2.60;;;4.30;99.90;;;;;;5052125;28;20029;-82
2022/04/29 02:48:10;;;;;;;5.40;2.40;;;4.20;99.90;;;;;;5052252;28;20023;-82
2022/04/29 02:50:35;;;;;;;5.22;2.85;;;4.20;99.90;;;;;;5053645;28;20021;-82
2022/04/29 02:53:01;;;;;;;5.30;2.88;;;4.20;99.90;;;;;;5052297;28;20032;-82
2022/04/29 02:55:27;;;;;;;4.65;2.55;;;4.20;99.90;;;;;;5053708;28;20029;-82
2022/04/29 02:57:52;;;;;;;5.43;2.80;;;4.10;99.90;;;;;;5052184;28;20080;-82
2022/04/29 03:00:19;;;;;;;4.38;3.00;;;4.10;99.90;;;;;;5053325;28;20431;-82
2022/04/29 03:02:44;;;;;;;3.92;2.47;;;4.10;99.90;;;;;;5053333;28;20029;-82
2022/04/29 03:05:10;;;;;;;4.57;2.95;;;4.00;99.90;;;;;;5051779;28;20036;-82
2022/04/29 03:07:36;;;;;;;7.93;4.20;;;4.00;99.90;;;;;;5053197;28;20021;-82
2022/04/29 03:10:01;;;;;;;20.42;9.55;;;4.00;99.90;;;;;;5053383;28;20159;-82
2022/04/29 03:12:27;;;;;;;38.65;17.35;;;4.00;99.90;;;;;;5051961;28;20461;-82
2022/04/29 03:14:53;;;;;;;27.30;12.38;;;4.00;99.90;;;;;;5053298;28;20029;-82
2022/04/29 03:20:09;;;;;;;15.70;6.65;;;3.90;99.90;;;;;;5024901;28;20061;-82
2022/04/29 03:22:35;;;;;;;11.45;5.00;;;3.90;99.90;;;;;;5053376;28;20096;-81
2022/04/29 03:25:00;;;;;;;5.40;3.30;;;3.90;99.90;;;;;;5053097;28;20100;-81
2022/04/29 03:27:26;;;;;;;6.05;2.95;;;3.80;99.90;;;;;;5053381;28;20067;-82
2022/04/29 03:29:51;;;;;;;5.60;2.65;;;3.80;99.90;;;;;;5051834;28;20025;-82
2022/04/29 03:32:18;;;;;;;6.47;3.60;;;3.70;99.90;;;;;;5051924;28;20172;-81
2022/04/29 03:34:44;;;;;;;4.75;3.30;;;3.70;99.90;;;;;;5053161;28;20507;-81
2022/04/29 03:37:09;;;;;;;4.20;2.80;;;3.60;99.90;;;;;;5055132;28;20024;-82
2022/04/29 03:39:35;;;;;;;6.95;3.72;;;3.50;99.90;;;;;;5053922;28;20512;-81
2022/04/29 03:42:01;;;;;;;15.85;7.78;;;3.50;99.90;;;;;;5053256;28;20032;-81
2022/04/29 03:44:26;;;;;;;23.75;11.20;;;3.60;99.90;;;;;;5053322;28;20029;-81
2022/04/29 03:46:52;;;;;;;31.95;14.98;;;3.50;99.90;;;;;;5052182;28;20021;-81
2022/04/29 03:49:36;;;;;;;49.50;20.13;;;3.50;99.90;;;;;;5052245;28;20052;-81
2022/04/29 03:52:03;;;;;;;23.20;10.52;;;3.50;99.90;;;;;;5051965;28;20032;-82
2022/04/29 03:54:28;;;;;;;15.90;6.65;;;3.50;99.90;;;;;;5053165;28;20037;-81
2022/04/29 03:56:54;;;;;;;10.43;5.57;;;3.40;99.90;;;;;;5051978;28;20025;-82
2022/04/29 03:59:20;;;;;;;7.13;3.60;;;3.40;99.90;;;;;;5053243;28;20031;-81
2022/04/29 04:01:45;;;;;;;7.30;3.35;;;3.40;99.90;;;;;;5053457;28;20021;-81
2022/04/29 04:04:11;;;;;;;5.15;2.85;;;3.40;99.90;;;;;;5051875;28;20385;-81
2022/04/29 04:06:49;;;;;;;6.38;2.88;;;3.40;99.90;;;;;;5053575;28;20067;-81
2022/04/29 04:09:20;;;;;;;4.13;2.70;;;3.30;99.90;;;;;;5056435;28;20013;-81
2022/04/29 04:11:46;;;;;;;5.63;3.10;;;3.30;99.90;;;;;;5058127;28;20029;-81
2022/04/29 04:14:12;;;;;;;5.20;2.72;;;3.30;99.90;;;;;;5057370;28;20055;-81
2022/04/29 04:16:38;;;;;;;5.13;2.42;;;3.30;99.90;;;;;;5056496;28;20528;-80
2022/04/29 04:19:05;;;;;;;4.78;2.72;;;3.30;99.90;;;;;;5056395;28;20107;-81
2022/04/29 04:21:30;;;;;;;9.20;3.15;;;3.30;99.90;;;;;;5055600;28;20025;-80
2022/04/29 04:23:56;;;;;;;6.13;3.40;;;3.20;99.90;;;;;;5054921;28;20081;-81
2022/04/29 04:26:22;;;;;;;10.45;5.18;;;3.20;99.90;;;;;;5056246;28;20048;-81
2022/04/29 04:28:48;;;;;;;8.27;4.35;;;3.20;99.90;;;;;;5056363;28;20021;-81
2022/04/29 04:31:14;;;;;;;9.10;5.15;;;3.20;99.90;;;;;;5056458;28;20557;-80
2022/04/29 04:33:40;;;;;;;8.68;5.22;;;3.20;99.90;;;;;;5054862;28;20024;-80
2022/04/29 04:36:06;;;;;;;7.40;4.53;;;3.10;99.90;;;;;;5056217;28;20027;-81
2022/04/29 04:38:32;;;;;;;6.10;3.67;;;3.10;99.90;;;;;;5056321;28;20103;-81
2022/04/29 04:40:58;;;;;;;5.38;3.58;;;3.10;99.90;;;;;;5056101;28;20051;-81
2022/04/29 04:43:27;;;;;;;4.68;3.03;;;3.10;99.90;;;;;;5056148;28;20033;-81
2022/04/29 04:45:53;;;;;;;6.03;2.95;;;3.10;99.90;;;;;;5054769;28;20135;-81
2022/04/29 04:48:19;;;;;;;5.45;4.05;;;3.10;99.90;;;;;;5054864;28;20048;-81
2022/04/29 04:50:45;;;;;;;6.38;3.45;;;3.10;99.90;;;;;;5056774;28;20135;-81
2022/04/29 04:53:11;;;;;;;7.93;3.88;;;3.10;99.90;;;;;;5056177;28;20025;-81
2022/04/29 04:55:38;;;;;;;6.15;3.40;;;3.10;99.90;;;;;;5056455;28;20117;-81
2022/04/29 04:58:03;;;;;;;6.05;3.30;;;3.10;99.90;;;;;;5054728;28;20560;-81
2022/04/29 05:00:29;;;;;;;5.30;3.15;;;3.00;99.90;;;;;;5054703;28;20112;-81
2022/04/29 05:02:55;;;;;;;5.25;3.30;;;3.00;99.90;;;;;;5054955;28;20028;-81
2022/04/29 05:05:21;;;;;;;5.63;3.72;;;3.00;99.90;;;;;;5054326;28;20032;-81
2022/04/29 05:07:47;;;;;;;6.53;3.95;;;3.00;99.90;;;;;;5055701;28;20036;-81
2022/04/29 05:10:13;;;;;;;5.70;3.55;;;3.00;99.90;;;;;;5055784;28;20017;-81
2022/04/29 05:12:44;;;;;;;23.33;8.70;;;3.00;99.90;;;;;;5056818;28;20033;-82
2022/04/29 05:15:10;;;;;;;;;;;3.00;99.90;;;;;;5057548;28;20033;-81
2022/04/29 05:17:38;;;;;;;13.85;6.60;;;3.00;99.90;;;;;;5055851;28;20003;-81
2022/04/29 05:20:05;;;;;;;9.90;4.70;;;3.00;99.90;;;;;;5054246;28;20017;-80
2022/04/29 05:22:31;;;;;;;8.45;5.10;;;3.10;99.90;;;;;;5054320;28;20070;-81
2022/04/29 05:24:57;;;;;;;6.43;4.85;;;3.00;99.90;;;;;;5054167;28;20025;-81
2022/04/29 05:27:23;;;;;;;9.45;4.93;;;3.10;99.90;;;;;;5055849;28;20027;-81
2022/04/29 05:29:49;;;;;;;10.00;6.05;;;3.20;99.90;;;;;;5055438;28;20100;-81
2022/04/29 05:32:16;;;;;;;10.32;5.03;;;3.20;99.90;;;;;;5054246;28;20442;-81
2022/04/29 05:34:43;;;;;;;7.43;4.43;;;3.20;99.90;;;;;;5054701;28;20032;-81
2022/04/29 05:37:09;;;;;;;7.88;4.82;;;3.30;99.90;;;;;;5056538;28;20464;-81
2022/04/29 05:42:21;;;;;;;8.27;5.25;;;3.50;99.90;;;;;;5055695;28;20032;-81
2022/04/29 05:44:47;;;;;;;8.98;5.70;;;3.60;99.90;;;;;;5055723;28;20104;-80
2022/04/29 05:47:12;;;;;;;11.38;6.18;;;3.60;99.90;;;;;;5055927;28;20045;-81
2022/04/29 05:49:38;;;;;;;11.27;6.28;;;3.70;99.90;;;;;;5056210;28;20329;-81
2022/04/29 05:52:05;;;;;;;10.85;6.13;;;3.80;99.90;;;;;;5056721;28;20428;-81
2022/04/29 05:54:31;;;;;;;12.25;6.75;;;3.90;99.90;;;;;;5060438;28;20031;-81
2022/04/29 05:56:58;;;;;;;19.90;8.27;;;3.90;99.90;;;;;;5079004;28;20013;-81
2022/04/29 05:59:24;;;;;;;14.35;6.90;;;4.00;99.90;;;;;;5079585;28;20021;-81
2022/04/29 06:01:49;;;;;;;12.02;6.95;;;4.10;99.90;;;;;;5079597;28;20047;-81
2022/04/29 06:04:16;;;;;;;11.43;6.55;;;4.10;99.90;;;;;;5079459;28;20041;-81
2022/04/29 06:06:42;;;;;;;10.48;6.15;;;4.20;99.90;;;;;;5079381;28;20009;-81
2022/04/29 06:09:08;;;;;;;11.82;6.97;;;4.20;99.90;;;;;;5079285;28;20025;-81
2022/04/29 06:11:34;;;;;;;12.68;7.55;;;4.30;99.90;;;;;;5079322;28;20021;-81
2022/04/29 06:13:59;;;;;;;9.98;6.60;;;4.40;99.90;;;;;;5077827;28;20029;-80
2022/04/29 06:16:26;;;;;;;14.52;6.68;;;4.40;99.90;;;;;;5078428;28;20009;-80
2022/04/29 06:18:51;;;;;;;9.88;6.38;;;4.50;99.90;;;;;;5073905;28;20093;-81
2022/04/29 06:21:18;;;;;;;16.25;7.28;;;4.60;99.90;;;;;;5070641;28;20036;-81
2022/04/29 06:23:44;;;;;;;12.85;7.70;;;4.60;99.90;;;;;;5070962;28;20021;-81
2022/04/29 06:26:10;;;;;;;11.50;7.65;;;4.70;99.90;;;;;;5068733;28;20028;-81
2022/04/29 06:28:36;;;;;;;13.75;7.60;;;4.90;99.90;;;;;;5068588;28;20033;-82
2022/04/29 06:31:03;;;;;;;12.00;8.13;;;5.00;99.90;;;;;;5069084;28;20039;-81
2022/04/29 06:33:33;;;;;;;11.27;7.85;;;5.20;99.90;;;;;;5069008;28;20025;-81
2022/04/29 06:35:59;;;;;;;13.88;7.45;;;5.40;99.90;;;;;;5068906;28;20016;-82
2022/04/29 06:38:25;;;;;;;10.48;7.22;;;5.50;99.90;;;;;;5069000;28;20032;-81
2022/04/29 06:40:52;;;;;;;9.90;6.63;;;5.70;99.90;;;;;;5068612;28;20037;-82
2022/04/29 06:43:18;;;;;;;10.73;6.47;;;5.80;99.90;;;;;;5066629;28;20147;-82
2022/04/29 06:45:44;;;;;;;11.13;5.95;;;6.00;99.90;;;;;;5067565;28;20025;-81
2022/04/29 06:48:10;;;;;;;10.63;6.80;;;6.10;99.90;;;;;;5068695;28;20021;-82
2022/04/29 06:50:36;;;;;;;10.90;6.45;;;6.20;99.90;;;;;;5067520;28;20025;-82
2022/04/29 06:53:01;;;;;;;10.50;5.28;;;6.40;99.90;;;;;;5066140;28;20087;-82
2022/04/29 06:55:27;;;;;;;10.10;5.70;;;6.50;99.90;;;;;;5066760;28;20061;-82
2022/04/29 06:57:53;;;;;;;8.73;4.88;;;6.70;99.90;;;;;;5066893;28;20025;-81
2022/04/29 07:00:20;;;;;;;9.43;5.47;;;6.90;99.90;;;;;;5064566;28;20051;-82
2022/04/29 07:02:46;;;;;;;13.85;5.60;;;7.00;99.90;;;;;;5065343;28;20025;-81
2022/04/29 07:05:12;;;;;;;8.70;6.00;;;7.20;99.90;;;;;;5065085;28;20032;-82
2022/04/29 07:07:38;;;;;;;9.93;6.68;;;7.30;99.90;;;;;;5065644;28;20021;-82
2022/04/29 07:10:04;;;;;;;13.82;7.85;;;7.50;99.90;;;;;;5065562;28;20017;-81
2022/04/29 07:12:33;;;;;;;15.25;7.32;;;7.60;99.90;;;;;;5066163;28;20473;-81
2022/04/29 07:14:59;;;;;;;10.57;6.65;;;7.80;99.90;;;;;;5065404;28;20021;-81
2022/04/29 07:17:25;;;;;;;9.93;6.57;;;8.00;99.90;;;;;;5064171;28;20025;-82
2022/04/29 07:19:53;;;;;;;12.30;6.75;;;8.10;99.90;;;;;;5059025;28;20086;-81
2022/04/29 07:22:19;;;;;;;10.88;7.18;;;8.30;99.90;;;;;;5054262;28;20100;-81
2022/04/29 07:24:45;;;;;;;15.73;6.22;;;8.40;99.90;;;;;;5054059;28;20116;-81
2022/04/29 07:27:13;;;;;;;8.43;5.35;;;8.60;99.90;;;;;;5054624;28;20027;-81
2022/04/29 07:29:39;;;;;;;6.30;4.78;;;8.80;99.90;;;;;;5054315;28;20018;-81
2022/04/29 07:32:05;;;;;;;9.50;5.70;;;8.90;99.90;;;;;;5054791;28;20432;-81
2022/04/29 07:42:44;;;;;;;11.18;5.78;;;9.60;99.90;;;;;;5055245;28;20399;-81
2022/04/29 07:45:10;;;;;;;7.30;5.43;;;9.70;99.90;;;;;;5058271;28;20436;-81
2022/04/29 07:47:38;;;;;;;8.43;5.45;;;9.80;99.80;;;;;;5058021;28;20025;-81
2022/04/29 07:50:06;;;;;;;14.88;6.05;;;10.00;99.40;;;;;;5058086;28;20025;-82
2022/04/29 07:52:33;;;;;;;10.38;5.25;;;10.10;99.90;;;;;;5055671;28;20048;-82
2022/04/29 07:54:59;;;;;;;12.38;6.80;;;10.20;99.00;;;;;;5056786;28;20033;-82
2022/04/29 07:57:25;;;;;;;9.77;6.15;;;10.40;98.50;;;;;;5055510;28;20025;-82
2022/04/29 07:59:51;;;;;;;9.35;5.72;;;10.50;98.60;;;;;;5055339;28;20025;-81
2022/04/29 08:02:16;;;;;;;9.52;5.63;;;10.60;98.40;;;;;;5055456;28;20031;-81
2022/04/29 08:04:42;;;;;;;9.38;5.40;;;10.70;97.80;;;;;;5055280;28;20031;-82
2022/04/29 08:07:08;;;;;;;17.15;8.30;;;10.90;97.80;;;;;;5055269;28;20120;-82
2022/04/29 08:09:33;;;;;;;11.25;6.32;;;11.10;95.80;;;;;;5056439;28;20036;-81
2022/04/29 08:11:59;;;;;;;16.55;8.55;;;11.20;96.00;;;;;;5055076;28;20469;-81
2022/04/29 08:14:26;;;;;;;11.18;7.07;;;11.30;95.10;;;;;;5056231;28;20029;-82
2022/04/29 08:16:52;;;;;;;11.10;6.38;;;11.50;94.20;;;;;;5054997;28;20039;-81
2022/04/29 08:19:18;;;;;;;11.13;5.93;;;11.70;94.30;;;;;;5054907;28;20033;-81
2022/04/29 08:21:44;;;;;;;8.23;5.45;;;11.80;94.20;;;;;;5055021;28;20033;-81
2022/04/29 08:24:09;;;;;;;8.05;5.88;;;12.00;93.80;;;;;;5054747;28;20029;-82
2022/04/29 08:26:35;;;;;;;9.38;5.97;;;12.10;92.80;;;;;;5056229;28;20024;-81
2022/04/29 08:29:01;;;;;;;9.65;6.18;;;12.30;92.40;;;;;;5056297;28;20028;-81
2022/04/29 08:31:26;;;;;;;11.13;6.60;;;12.40;91.70;;;;;;5056569;28;20029;-81
2022/04/29 08:33:52;;;;;;;9.82;4.85;;;12.50;91.70;;;;;;5055255;28;20024;-81
2022/04/29 08:36:18;;;;;;;8.60;4.88;;;12.60;90.40;;;;;;5054719;28;20068;-81
2022/04/29 08:38:43;;;;;;;6.93;4.43;;;12.80;90.00;;;;;;5056551;28;20025;-81
2022/04/29 08:41:10;;;;;;;5.53;4.18;;;12.90;87.90;;;;;;5054682;28;20033;-81
2022/04/29 08:43:38;;;;;;;6.40;4.35;;;13.10;87.00;;;;;;5056145;28;20078;-81
2022/04/29 08:46:06;;;;;;;6.63;4.00;;;13.20;85.20;;;;;;5054841;28;20392;-81
2022/04/29 08:48:33;;;;;;;6.15;2.90;;;13.30;84.50;;;;;;5055049;28;20477;-81
2022/04/29 08:50:59;;;;;;;4.50;3.00;;;13.50;79.80;;;;;;5054837;28;20120;-81
2022/04/29 08:53:25;;;;;;;6.13;3.83;;;13.70;80.80;;;;;;5054207;28;20021;-81
2022/04/29 08:58:40;;;;;;;4.47;2.60;;;13.90;74.70;;;;;;5055909;28;20036;-81
2022/04/29 09:01:16;;;;;;;3.90;2.58;;;14.10;74.10;;;;;;5054682;28;20035;-81
2022/04/29 09:03:43;;;;;;;4.07;2.25;;;14.30;72.60;;;;;;5055490;28;20025;-81
2022/04/29 09:06:09;;;;;;;7.03;2.40;;;14.30;75.10;;;;;;5054768;28;20025;-81
2022/04/29 09:08:45;;;;;;;4.93;2.38;;;14.50;74.10;;;;;;5054087;28;20538;-81
2022/04/29 09:11:20;;;;;;;4.28;2.17;;;14.70;70.40;;;;;;5054143;28;20029;-81
2022/04/29 09:13:45;;;;;;;5.50;2.70;;;14.70;69.90;;;;;;5054276;28;20025;-81
2022/04/29 09:16:15;;;;;;;4.20;2.33;;;14.80;66.10;;;;;;5055016;28;20024;-81
2022/04/29 09:18:43;;;;;;;3.05;2.05;;;15.00;68.60;;;;;;5053994;28;20032;-81
2022/04/29 09:21:26;;;;;;;8.27;2.55;;;15.10;65.60;;;;;;5055056;28;20449;-81
2022/04/29 09:23:56;;;;;;;5.18;2.60;;;15.20;66.40;;;;;;5055192;28;20013;-81
2022/04/29 09:26:26;;;;;;;4.50;2.50;;;15.30;68.20;;;;;;5055214;28;20074;-82
2022/04/29 09:29:10;;;;;;;6.43;2.40;;;15.50;66.70;;;;;;5055385;28;20017;-81
2022/04/29 09:32:11;;;;;;;2.97;2.08;;;15.70;67.50;;;;;;5053568;28;20264;-81
2022/04/29 09:34:58;;;;;;;3.35;1.90;;;16.00;63.20;;;;;;5021878;28;20542;-81
2022/04/29 09:37:30;;;;;;;5.75;2.05;;;16.00;61.50;;;;;;5053731;28;20033;-81
2022/04/29 09:39:58;;;;;;;4.45;1.75;;;16.00;61.50;;;;;;5054728;28;20025;-81
2022/04/29 09:42:24;;;;;;;2.53;1.55;;;16.20;62.40;;;;;;5054948;28;20104;-82
2022/04/29 09:44:49;;;;;;;4.38;1.58;;;16.30;59.40;;;;;;5054759;28;20100;-81
2022/04/29 09:47:19;;;;;;;2.05;1.40;;;16.40;59.40;;;;;;5054643;28;20021;-81
2022/04/29 09:49:56;;;;;;;3.13;1.70;;;16.50;58.80;;;;;;5053390;28;20051;-81
2022/04/29 09:52:28;;;;;;;2.53;1.27;;;16.60;60.20;;;;;;5053429;28;20021;-81
2022/04/29 09:54:53;;;;;;;5.90;2.03;;;16.70;56.40;;;;;;5056882;28;20017;-81
2022/04/29 09:57:24;;;;;;;2.60;1.23;;;16.80;55.90;;;;;;5060538;28;20485;-81
2022/04/29 09:59:52;;;;;;;6.75;1.77;;;16.90;54.50;;;;;;5058220;28;20084;-81
2022/04/29 10:02:23;;;;;;;2.50;1.45;;;17.10;53.00;;;;;;5056572;28;20495;-81
2022/04/29 10:04:50;;;;;;;3.55;1.48;;;17.20;55.50;;;;;;5056006;28;20035;-81
2022/04/29 10:07:23;;;;;;;3.20;1.80;;;17.30;53.50;;;;;;5053998;28;20025;-81
2022/04/29 10:09:54;;;;;;;4.38;1.42;;;17.30;54.20;;;;;;5053325;28;20482;-81
2022/04/29 10:12:23;;;;;;;3.35;1.45;;;17.30;53.90;;;;;;5053265;28;20032;-81
2022/04/29 10:14:53;;;;;;;3.08;1.30;;;17.30;52.10;;;;;;5052966;28;20112;-81
2022/04/29 10:23:09;;;;;;;3.53;1.30;;;17.50;54.80;;;;;;5054102;28;20059;-81
2022/04/29 10:25:40;;;;;;;4.18;1.70;;;17.60;53.10;;;;;;5053876;28;20025;-81
2022/04/29 10:28:08;;;;;;;2.30;1.30;;;17.70;55.50;;;;;;5054262;28;20032;-81
2022/04/29 10:30:36;;;;;;;3.70;1.42;;;17.80;55.70;;;;;;5054148;28;20029;-81
2022/04/29 10:33:10;;;;;;;2.63;1.30;;;17.90;48.80;;;;;;5054005;28;20021;-81
2022/04/29 10:35:39;;;;;;;2.10;1.25;;;17.90;49.00;;;;;;5053823;28;20021;-81
2022/04/29 10:38:15;;;;;;;2.15;1.17;;;18.00;48.10;;;;;;5053763;28;20424;-81
2022/04/29 10:40:42;;;;;;;2.80;1.30;;;18.10;45.50;;;;;;5053682;28;20069;-81
2022/04/29 10:43:10;;;;;;;2.05;1.20;;;18.20;48.40;;;;;;5053892;28;20043;-81
2022/04/29 10:46:05;;;;;;;2.90;1.15;;;18.30;50.20;;;;;;5053457;28;20033;-81
2022/04/29 10:48:31;;;;;;;;;;;18.40;50.20;;;;;;5053889;28;20023;-81
2022/04/29 10:50:57;;;;;;;;;;;18.50;47.80;;;;;;5056430;28;19994;-83
2022/04/29 10:53:23;;;;;;;;;;;18.50;46.80;;;;;;5065760;28;19905;-82
2022/04/29 10:55:49;;;;;;;;;;;18.60;46.90;;;;;;5064135;28;19905;-82
2022/04/29 10:58:19;;;;;;;;;;;18.80;47.40;;;;;;5052667;28;19911;-81
2022/04/29 11:01:04;;;;;;;;;;;18.90;47.30;;;;;;5053843;28;20347;-81
2022/04/29 11:03:37;;;;;;;;;;;19.00;46.00;;;;;;5052519;28;19905;-81
2022/04/29 11:06:06;;;;;;;;;;;19.00;46.20;;;;;;5052570;28;19915;-81
2022/04/29 11:08:32;;;;;;;;;;;19.00;46.20;;;;;;5054039;28;19905;-81
2022/04/29 11:10:58;;;;;;;;;;;19.10;45.10;;;;;;5053931;28;19931;-82
2022/04/29 11:13:26;;;;;;;;;;;19.00;42.50;;;;;;5053781;28;19904;-82
2022/04/29 11:15:52;;;;;;;;;;;19.10;42.50;;;;;;5054156;28;19932;-82
2022/04/29 11:18:23;;;;;;;;;;;19.20;43.50;;;;;;5056624;28;19963;-81
2022/04/29 11:26:41;;;;;;;;;;;19.70;40.80;;;;;;5044490;28;19962;-81
2022/04/29 11:29:09;;;;;;;;;;;19.80;41.50;;;;;;5056889;28;19916;-82
2022/04/29 11:31:35;;;;;;;;;;;19.80;42.70;;;;;;5058070;28;19958;-82
2022/04/29 11:34:04;;;;;;;;;;;19.70;41.50;;;;;;5056578;28;19908;-82
2022/04/29 11:36:30;;;;;;;;;;;19.80;41.50;;;;;;5057975;28;19915;-82
2022/04/29 11:38:55;;;;;;;;;;;19.90;40.90;;;;;;5057466;28;19909;-82
2022/04/29 11:41:21;;;;;;;;;;;19.90;41.40;;;;;;5057865;28;19912;-82
2022/04/29 11:43:51;;;;;;;;;;;19.70;40.30;;;;;;5056885;28;19943;-82
2022/04/29 11:46:17;;;;;;;;;;;19.60;42.00;;;;;;5057869;28;19976;-82
2022/04/29 11:48:52;;;;;;;;;;;19.60;41.80;;;;;;5058121;28;19944;-82
2022/04/29 11:51:18;;;;;;;;;;;19.70;42.00;;;;;;5057839;28;19913;-82
2022/04/29 11:53:52;;;;;;;;;;;19.90;44.40;;;;;;5057417;28;19911;-82
2022/04/29 11:56:18;;;;;;;;;;;20.00;41.00;;;;;;5055845;28;19916;-82
2022/04/29 11:58:44;;;;;;;;;;;20.10;42.20;;;;;;5057474;28;20361;-82
2022/04/29 12:01:09;;;;;;;;;;;20.20;42.40;;;;;;5057301;28;19904;-82
2022/04/29 12:03:35;;;;;;;;;;;20.30;42.30;;;;;;5057477;28;20242;-82
2022/04/29 12:06:02;;;;;;;;;;;20.40;41.40;;;;;;5057421;28;20349;-81
2022/04/29 12:08:37;;;;;;;;;;;20.40;41.90;;;;;;5058490;28;20007;-82
2022/04/29 12:11:03;;;;;;;;;;;20.50;43.30;;;;;;5056212;28;19911;-82
2022/04/29 12:13:30;;;;;;;;;;;20.70;46.00;;;;;;5056812;28;20311;-82
2022/04/29 12:15:56;;;;;;;;;;;20.80;43.00;;;;;;5056612;28;19905;-82
2022/04/29 12:18:36;;;;;;;;;;;20.90;41.30;;;;;;5056898;28;19999;-82
2022/04/29 12:21:02;;;;;;;;;;;21.00;38.70;;;;;;5055502;28;19905;-83
2022/04/29 12:23:31;;;;;;;;;;;21.10;39.40;;;;;;5056583;28;19931;-82
2022/04/29 12:25:58;;;;;;;;;;;21.10;39.60;;;;;;5055206;28;19909;-82
2022/04/29 12:28:26;;;;;;;;;;;21.20;41.90;;;;;;5054666;28;19904;-83
2022/04/29 12:36:49;;;;;;;;;;;21.50;39.50;;;;;;5035090;28;20364;-82
2022/04/29 12:39:16;;;;;;;;;;;21.50;41.20;;;;;;5056480;28;19908;-82
2022/04/29 12:41:42;;;;;;;;;;;21.50;40.30;;;;;;5055311;28;19905;-82
2022/04/29 12:44:07;;;;;;;;;;;21.40;37.70;;;;;;5056332;28;20436;-82
2022/04/29 12:46:34;;;;;;;;;;;21.30;40.00;;;;;;5055053;28;20415;-82
2022/04/29 12:48:59;;;;;;;;;;;21.40;42.00;;;;;;5056585;28;19911;-82
2022/04/29 12:51:28;;;;;;;;;;;21.30;39.10;;;;;;5054922;28;20340;-83
2022/04/29 12:53:57;;;;;;;;;;;21.40;40.70;;;;;;5054980;28;19905;-82
2022/04/29 12:56:30;;;;;;;;;;;21.50;41.10;;;;;;5056173;28;19912;-81
2022/04/29 12:58:57;;;;;;;;;;;21.50;39.50;;;;;;5056344;28;19905;-81
2022/04/29 13:01:22;;;;;;;;;;;21.60;40.80;;;;;;5056446;28;20432;-82
2022/04/29 13:03:55;;;;;;;;;;;21.60;42.40;;;;;;5056457;28;19939;-81
2022/04/29 13:06:22;;;;;;;;;;;21.70;44.70;;;;;;5055889;28;19909;-82
2022/04/29 13:08:52;;;;;;;;;;;21.80;40.90;;;;;;5055409;28;19932;-82
2022/04/29 13:11:17;;;;;;;;;;;21.80;40.00;;;;;;5054638;28;20357;-82
2022/04/29 13:13:43;;;;;;;;;;;21.80;39.90;;;;;;5056189;28;19911;-82
2022/04/29 13:16:09;;;;;;;;;;;21.80;41.30;;;;;;5055678;28;19912;-82
2022/04/29 13:18:34;;;;;;;;;;;22.00;40.80;;;;;;5055494;28;20341;-82
2022/04/29 13:21:06;;;;;;;;;;;22.10;42.60;;;;;;5055699;28;20284;-82
2022/04/29 13:23:32;;;;;;;;;;;22.10;40.90;;;;;;5054466;28;19904;-82
2022/04/29 13:25:57;;;;;;;;;;;22.00;41.70;;;;;;5054206;28;19915;-82
2022/04/29 13:28:23;;;;;;;;;;;22.10;41.50;;;;;;5055747;28;19991;-82
2022/04/29 13:30:48;;;;;;;;;;;22.30;40.50;;;;;;5054350;28;20272;-82
2022/04/29 13:33:14;;;;;;;;;;;22.40;39.40;;;;;;5054147;28;20356;-82
2022/04/29 13:35:40;;;;;;;;;;;22.60;39.50;;;;;;5055429;28;19905;-81
2022/04/29 13:38:06;;;;;;;;;;;22.50;40.10;;;;;;5055764;28;20015;-81
2022/04/29 13:40:32;;;;;;;;;;;22.50;37.30;;;;;;5054259;28;19916;-82
2022/04/29 13:42:57;;;;;;;;;;;22.50;40.10;;;;;;5040845;28;19905;-83